sensor_id;sensor_type;location;lat;lon;timestamp;temperature;humidity
3756;DHT22;1893;52.526;13.360;2022-09-13T00:01:52;14.80;99.90
3756;DHT22;1893;52.526;13.360;2022-09-13T00:04:17;14.80;99.90
3756;DHT22;1893;52.526;13.360;2022-09-13T00:06:43;14.80;99.90
3756;DHT22;1893;52.526;13.360;2022-09-13T00:09:08;14.80;99.90
3756;DHT22;1893;52.526;13.360;2022-09-13T00:11:34;14.80;99.90
3756;DHT22;1893;52.526;13.360;2022-09-13T00:13:59;14.80;99.90
3756;DHT22;1893;52.526;13.360;2022-09-13T00:16:27;14.70;99.90
3756;DHT22;1893;52.526;13.360;2022-09-13T00:18:53;14.70;99.90
3756;DHT22;1893;52.526;13.360;2022-09-13T00:21:20;14.70;99.90
3756;DHT22;1893;52.526;13.360;2022-09-13T00:23:48;14.70;99.90
3756;DHT22;1893;52.526;13.360;2022-09-13T00:26:26;14.70;99.90
3756;DHT22;1893;52.526;13.360;2022-09-13T00:28:54;14.70;99.90
3756;DHT22;1893;52.526;13.360;2022-09-13T00:31:21;14.70;99.90
3756;DHT22;1893;52.526;13.360;2022-09-13T00:33:48;14.70;99.90
3756;DHT22;1893;52.526;13.360;2022-09-13T00:36:13;14.70;99.90
3756;DHT22;1893;52.526;13.360;2022-09-13T00:38:42;14.70;99.90
3756;DHT22;1893;52.526;13.360;2022-09-13T00:41:11;14.70;99.90
3756;DHT22;1893;52.526;13.360;2022-09-13T00:43:47;14.60;99.90
3756;DHT22;1893;52.526;13.360;2022-09-13T00:46:17;14.70;99.90
3756;DHT22;1893;52.526;13.360;2022-09-13T00:48:46;14.70;99.90
3756;DHT22;1893;52.526;13.360;2022-09-13T00:51:13;14.60;99.90
3756;DHT22;1893;52.526;13.360;2022-09-13T00:53:42;14.60;99.90
3756;DHT22;1893;52.526;13.360;2022-09-13T00:56:14;14.60;99.90
3756;DHT22;1893;52.526;13.360;2022-09-13T00:58:48;14.70;99.90
3756;DHT22;1893;52.526;13.360;2022-09-13T01:01:16;14.60;99.90
3756;DHT22;1893;52.526;13.360;2022-09-13T01:03:43;14.60;99.90
3756;DHT22;1893;52.526;13.360;2022-09-13T01:06:13;14.60;99.90
3756;DHT22;1893;52.526;13.360;2022-09-13T01:08:41;14.60;99.90
3756;DHT22;1893;52.526;13.360;2022-09-13T01:11:16;14.60;99.90
3756;DHT22;1893;52.526;13.360;2022-09-13T01:13:43;14.50;99.90
3756;DHT22;1893;52.526;13.360;2022-09-13T01:16:09;14.50;99.90
3756;DHT22;1893;52.526;13.360;2022-09-13T01:18:34;14.50;99.90
3756;DHT22;1893;52.526;13.360;2022-09-13T01:47:33;14.40;99.90
3756;DHT22;1893;52.526;13.360;2022-09-13T01:50:30;14.40;99.90
3756;DHT22;1893;52.526;13.360;2022-09-13T01:53:28;14.40;99.90
3756;DHT22;1893;52.526;13.360;2022-09-13T01:56:17;14.40;99.90
3756;DHT22;1893;52.526;13.360;2022-09-13T01:58:50;14.30;99.90
3756;DHT22;1893;52.526;13.360;2022-09-13T02:01:29;14.20;99.90
3756;DHT22;1893;52.526;13.360;2022-09-13T02:04:10;14.20;99.90
3756;DHT22;1893;52.526;13.360;2022-09-13T02:09:26;14.10;99.90
3756;DHT22;1893;52.526;13.360;2022-09-13T02:12:01;14.10;99.90
3756;DHT22;1893;52.526;13.360;2022-09-13T02:14:33;14.00;99.90
3756;DHT22;1893;52.526;13.360;2022-09-13T02:17:06;14.10;99.90
3756;DHT22;1893;52.526;13.360;2022-09-13T02:19:39;14.10;99.90
3756;DHT22;1893;52.526;13.360;2022-09-13T02:22:10;14.10;99.90
3756;DHT22;1893;52.526;13.360;2022-09-13T02:24:45;14.00;99.90
3756;DHT22;1893;52.526;13.360;2022-09-13T02:27:15;14.00;99.90
3756;DHT22;1893;52.526;13.360;2022-09-13T02:29:45;14.00;99.90
3756;DHT22;1893;52.526;13.360;2022-09-13T02:32:28;14.00;99.90
3756;DHT22;1893;52.526;13.360;2022-09-13T02:35:00;14.00;99.90
3756;DHT22;1893;52.526;13.360;2022-09-13T02:37:29;13.90;99.90
3756;DHT22;1893;52.526;13.360;2022-09-13T02:40:01;13.90;99.90
3756;DHT22;1893;52.526;13.360;2022-09-13T02:42:36;13.90;99.90
3756;DHT22;1893;52.526;13.360;2022-09-13T02:45:04;13.90;99.90
3756;DHT22;1893;52.526;13.360;2022-09-13T02:47:58;13.90;99.90
3756;DHT22;1893;52.526;13.360;2022-09-13T02:50:39;14.00;99.90
3756;DHT22;1893;52.526;13.360;2022-09-13T02:53:26;14.00;99.90
3756;DHT22;1893;52.526;13.360;2022-09-13T02:58:51;14.00;99.90
3756;DHT22;1893;52.526;13.360;2022-09-13T03:01:17;14.00;99.90
3756;DHT22;1893;52.526;13.360;2022-09-13T03:03:43;14.00;99.90
3756;DHT22;1893;52.526;13.360;2022-09-13T03:06:09;14.00;99.90
3756;DHT22;1893;52.526;13.360;2022-09-13T03:08:35;14.00;99.90
3756;DHT22;1893;52.526;13.360;2022-09-13T03:11:12;13.90;99.90
3756;DHT22;1893;52.526;13.360;2022-09-13T03:13:55;13.90;99.90
3756;DHT22;1893;52.526;13.360;2022-09-13T03:19:22;13.90;99.90
3756;DHT22;1893;52.526;13.360;2022-09-13T03:22:01;13.90;99.90
3756;DHT22;1893;52.526;13.360;2022-09-13T03:25:04;13.90;99.90
3756;DHT22;1893;52.526;13.360;2022-09-13T03:30:26;13.90;99.90
3756;DHT22;1893;52.526;13.360;2022-09-13T03:33:51;13.80;99.90
3756;DHT22;1893;52.526;13.360;2022-09-13T03:38:36;13.90;99.90
3756;DHT22;1893;52.526;13.360;2022-09-13T03:41:20;13.80;99.90
3756;DHT22;1893;52.526;13.360;2022-09-13T03:43:59;13.70;99.90
3756;DHT22;1893;52.526;13.360;2022-09-13T03:46:31;13.90;99.90
3756;DHT22;1893;52.526;13.360;2022-09-13T03:49:01;13.70;99.90
3756;DHT22;1893;52.526;13.360;2022-09-13T03:51:29;13.70;99.90
3756;DHT22;1893;52.526;13.360;2022-09-13T03:54:02;13.70;99.90
3756;DHT22;1893;52.526;13.360;2022-09-13T03:56:29;13.60;99.90
3756;DHT22;1893;52.526;13.360;2022-09-13T03:58:54;13.60;99.90
3756;DHT22;1893;52.526;13.360;2022-09-13T04:01:21;13.60;99.90
3756;DHT22;1893;52.526;13.360;2022-09-13T04:03:47;13.60;99.90
3756;DHT22;1893;52.526;13.360;2022-09-13T04:06:13;13.60;99.90
3756;DHT22;1893;52.526;13.360;2022-09-13T04:08:39;13.60;99.90
3756;DHT22;1893;52.526;13.360;2022-09-13T04:11:04;13.80;99.90
3756;DHT22;1893;52.526;13.360;2022-09-13T04:13:30;13.70;99.90
3756;DHT22;1893;52.526;13.360;2022-09-13T04:15:59;13.70;99.90
3756;DHT22;1893;52.526;13.360;2022-09-13T04:18:27;13.80;99.90
3756;DHT22;1893;52.526;13.360;2022-09-13T04:20:58;13.80;99.90
3756;DHT22;1893;52.526;13.360;2022-09-13T04:23:25;13.70;99.90
3756;DHT22;1893;52.526;13.360;2022-09-13T04:25:51;13.70;99.90
3756;DHT22;1893;52.526;13.360;2022-09-13T04:28:18;13.70;99.90
3756;DHT22;1893;52.526;13.360;2022-09-13T04:30:44;13.70;99.90
3756;DHT22;1893;52.526;13.360;2022-09-13T04:33:10;13.80;99.90
3756;DHT22;1893;52.526;13.360;2022-09-13T04:35:36;13.80;99.90
3756;DHT22;1893;52.526;13.360;2022-09-13T04:38:03;13.80;99.90
3756;DHT22;1893;52.526;13.360;2022-09-13T04:40:29;13.80;99.90
3756;DHT22;1893;52.526;13.360;2022-09-13T04:42:54;13.80;99.90
3756;DHT22;1893;52.526;13.360;2022-09-13T04:45:20;13.80;99.90
3756;DHT22;1893;52.526;13.360;2022-09-13T04:47:51;13.80;99.90
3756;DHT22;1893;52.526;13.360;2022-09-13T04:50:18;13.80;99.90
3756;DHT22;1893;52.526;13.360;2022-09-13T04:52:45;13.80;99.90
3756;DHT22;1893;52.526;13.360;2022-09-13T04:55:10;13.80;99.90
3756;DHT22;1893;52.526;13.360;2022-09-13T04:57:36;13.80;99.90
3756;DHT22;1893;52.526;13.360;2022-09-13T05:00:02;13.90;99.90
3756;DHT22;1893;52.526;13.360;2022-09-13T05:02:28;13.90;99.90
3756;DHT22;1893;52.526;13.360;2022-09-13T05:04:53;13.90;99.90
3756;DHT22;1893;52.526;13.360;2022-09-13T05:07:19;14.00;99.90
3756;DHT22;1893;52.526;13.360;2022-09-13T05:09:45;14.00;99.90
3756;DHT22;1893;52.526;13.360;2022-09-13T05:12:10;14.00;99.90
3756;DHT22;1893;52.526;13.360;2022-09-13T05:14:36;14.00;99.90
3756;DHT22;1893;52.526;13.360;2022-09-13T05:17:01;14.00;99.90
3756;DHT22;1893;52.526;13.360;2022-09-13T05:19:27;14.10;99.90
3756;DHT22;1893;52.526;13.360;2022-09-13T05:21:52;14.10;99.90
3756;DHT22;1893;52.526;13.360;2022-09-13T05:24:18;14.10;99.90
3756;DHT22;1893;52.526;13.360;2022-09-13T05:26:43;14.20;99.90
3756;DHT22;1893;52.526;13.360;2022-09-13T05:29:09;14.10;99.90
3756;DHT22;1893;52.526;13.360;2022-09-13T05:31:37;14.10;99.90
3756;DHT22;1893;52.526;13.360;2022-09-13T05:34:07;14.10;99.90
3756;DHT22;1893;52.526;13.360;2022-09-13T05:36:35;14.10;99.90
3756;DHT22;1893;52.526;13.360;2022-09-13T05:39:00;14.10;99.90
3756;DHT22;1893;52.526;13.360;2022-09-13T05:41:26;14.20;99.90
3756;DHT22;1893;52.526;13.360;2022-09-13T05:43:52;14.10;99.90
3756;DHT22;1893;52.526;13.360;2022-09-13T05:46:18;14.10;99.90
3756;DHT22;1893;52.526;13.360;2022-09-13T05:48:45;14.20;99.90
3756;DHT22;1893;52.526;13.360;2022-09-13T05:51:18;14.20;99.90
3756;DHT22;1893;52.526;13.360;2022-09-13T05:53:46;14.10;99.90
3756;DHT22;1893;52.526;13.360;2022-09-13T05:56:14;14.10;99.90
3756;DHT22;1893;52.526;13.360;2022-09-13T05:58:42;14.10;99.90
3756;DHT22;1893;52.526;13.360;2022-09-13T06:01:09;14.10;99.90
3756;DHT22;1893;52.526;13.360;2022-09-13T06:03:35;14.00;99.90
3756;DHT22;1893;52.526;13.360;2022-09-13T06:06:02;13.90;99.90
3756;DHT22;1893;52.526;13.360;2022-09-13T06:08:29;13.80;99.90
3756;DHT22;1893;52.526;13.360;2022-09-13T06:10:55;13.90;99.90
3756;DHT22;1893;52.526;13.360;2022-09-13T06:13:22;13.80;99.90
3756;DHT22;1893;52.526;13.360;2022-09-13T06:15:47;13.70;99.90
3756;DHT22;1893;52.526;13.360;2022-09-13T06:18:13;13.70;99.90
3756;DHT22;1893;52.526;13.360;2022-09-13T06:20:38;13.70;99.90
3756;DHT22;1893;52.526;13.360;2022-09-13T06:23:04;13.70;99.90
3756;DHT22;1893;52.526;13.360;2022-09-13T06:25:29;13.60;99.90
3756;DHT22;1893;52.526;13.360;2022-09-13T06:27:55;13.60;99.90
3756;DHT22;1893;52.526;13.360;2022-09-13T06:30:20;13.60;99.90
3756;DHT22;1893;52.526;13.360;2022-09-13T06:32:46;13.60;99.90
3756;DHT22;1893;52.526;13.360;2022-09-13T06:35:12;13.60;99.90
3756;DHT22;1893;52.526;13.360;2022-09-13T06:37:37;13.60;99.90
3756;DHT22;1893;52.526;13.360;2022-09-13T06:40:03;13.50;99.90
3756;DHT22;1893;52.526;13.360;2022-09-13T06:42:29;13.60;99.90
3756;DHT22;1893;52.526;13.360;2022-09-13T06:44:57;13.60;99.90
3756;DHT22;1893;52.526;13.360;2022-09-13T06:47:23;13.60;99.90
3756;DHT22;1893;52.526;13.360;2022-09-13T06:49:48;13.70;99.90
3756;DHT22;1893;52.526;13.360;2022-09-13T06:52:14;13.70;99.90
3756;DHT22;1893;52.526;13.360;2022-09-13T06:54:39;13.80;99.90
3756;DHT22;1893;52.526;13.360;2022-09-13T06:57:05;13.90;99.90
3756;DHT22;1893;52.526;13.360;2022-09-13T06:59:30;14.00;99.90
3756;DHT22;1893;52.526;13.360;2022-09-13T07:01:56;14.00;99.90
3756;DHT22;1893;52.526;13.360;2022-09-13T07:04:21;14.10;99.90
3756;DHT22;1893;52.526;13.360;2022-09-13T07:06:48;14.20;99.90
3756;DHT22;1893;52.526;13.360;2022-09-13T07:09:17;14.20;99.90
3756;DHT22;1893;52.526;13.360;2022-09-13T07:11:45;14.30;99.90
3756;DHT22;1893;52.526;13.360;2022-09-13T07:14:22;14.30;99.90
3756;DHT22;1893;52.526;13.360;2022-09-13T07:16:48;14.30;99.90
3756;DHT22;1893;52.526;13.360;2022-09-13T07:19:14;14.30;99.90
3756;DHT22;1893;52.526;13.360;2022-09-13T07:21:40;14.20;99.90
3756;DHT22;1893;52.526;13.360;2022-09-13T07:24:06;14.20;99.90
3756;DHT22;1893;52.526;13.360;2022-09-13T07:26:32;14.30;99.90
3756;DHT22;1893;52.526;13.360;2022-09-13T07:28:59;14.30;99.90
3756;DHT22;1893;52.526;13.360;2022-09-13T07:31:28;14.30;99.90
3756;DHT22;1893;52.526;13.360;2022-09-13T07:33:56;14.40;99.90
3756;DHT22;1893;52.526;13.360;2022-09-13T07:36:22;14.40;99.90
3756;DHT22;1893;52.526;13.360;2022-09-13T07:38:48;14.50;99.90
3756;DHT22;1893;52.526;13.360;2022-09-13T07:41:16;14.50;99.90
3756;DHT22;1893;52.526;13.360;2022-09-13T07:43:42;14.60;99.90
3756;DHT22;1893;52.526;13.360;2022-09-13T07:46:13;14.70;99.90
3756;DHT22;1893;52.526;13.360;2022-09-13T07:48:41;14.70;99.90
3756;DHT22;1893;52.526;13.360;2022-09-13T07:51:13;14.80;99.90
3756;DHT22;1893;52.526;13.360;2022-09-13T07:53:40;14.90;99.90
3756;DHT22;1893;52.526;13.360;2022-09-13T07:56:18;15.00;99.90
3756;DHT22;1893;52.526;13.360;2022-09-13T07:58:46;15.00;99.90
3756;DHT22;1893;52.526;13.360;2022-09-13T08:01:14;15.10;99.90
3756;DHT22;1893;52.526;13.360;2022-09-13T08:03:41;15.20;99.90
3756;DHT22;1893;52.526;13.360;2022-09-13T08:06:07;15.30;99.90
3756;DHT22;1893;52.526;13.360;2022-09-13T08:08:33;15.40;99.90
3756;DHT22;1893;52.526;13.360;2022-09-13T08:11:00;15.40;99.90
3756;DHT22;1893;52.526;13.360;2022-09-13T08:13:26;15.50;99.90
3756;DHT22;1893;52.526;13.360;2022-09-13T08:15:53;15.50;99.90
3756;DHT22;1893;52.526;13.360;2022-09-13T08:18:19;15.70;99.90
3756;DHT22;1893;52.526;13.360;2022-09-13T08:20:45;15.90;99.90
3756;DHT22;1893;52.526;13.360;2022-09-13T08:23:11;16.10;99.90
3756;DHT22;1893;52.526;13.360;2022-09-13T08:25:37;16.00;99.90
3756;DHT22;1893;52.526;13.360;2022-09-13T08:28:16;16.00;99.90
3756;DHT22;1893;52.526;13.360;2022-09-13T08:30:43;16.10;99.90
3756;DHT22;1893;52.526;13.360;2022-09-13T08:33:10;16.10;99.90
3756;DHT22;1893;52.526;13.360;2022-09-13T08:35:36;16.10;99.90
3756;DHT22;1893;52.526;13.360;2022-09-13T08:38:04;16.10;99.90
3756;DHT22;1893;52.526;13.360;2022-09-13T08:40:37;16.10;99.90
3756;DHT22;1893;52.526;13.360;2022-09-13T08:45:39;16.20;99.90
3756;DHT22;1893;52.526;13.360;2022-09-13T08:48:13;16.30;99.90
3756;DHT22;1893;52.526;13.360;2022-09-13T08:50:41;16.40;99.90
3756;DHT22;1893;52.526;13.360;2022-09-13T08:53:25;16.40;99.90
3756;DHT22;1893;52.526;13.360;2022-09-13T08:56:02;16.50;99.90
3756;DHT22;1893;52.526;13.360;2022-09-13T09:07:02;17.10;99.90
3756;DHT22;1893;52.526;13.360;2022-09-13T09:09:33;17.30;99.90
3756;DHT22;1893;52.526;13.360;2022-09-13T09:12:10;17.30;99.90
3756;DHT22;1893;52.526;13.360;2022-09-13T09:14:41;17.30;99.90
3756;DHT22;1893;52.526;13.360;2022-09-13T09:17:20;17.40;99.90
3756;DHT22;1893;52.526;13.360;2022-09-13T09:19:51;17.50;99.90
3756;DHT22;1893;52.526;13.360;2022-09-13T09:22:19;17.80;99.90
3756;DHT22;1893;52.526;13.360;2022-09-13T09:24:54;18.30;99.90
3756;DHT22;1893;52.526;13.360;2022-09-13T09:27:20;18.50;99.90
3756;DHT22;1893;52.526;13.360;2022-09-13T09:29:54;18.80;99.90
3756;DHT22;1893;52.526;13.360;2022-09-13T09:35:30;19.00;38.00
3756;DHT22;1893;52.526;13.360;2022-09-13T09:40:52;19.70;1.00
3756;DHT22;1893;52.526;13.360;2022-09-13T09:43:28;20.20;1.00
3756;DHT22;1893;52.526;13.360;2022-09-13T09:45:58;20.30;1.00
3756;DHT22;1893;52.526;13.360;2022-09-13T09:48:28;20.00;1.00
3756;DHT22;1893;52.526;13.360;2022-09-13T09:50:56;19.90;1.00
3756;DHT22;1893;52.526;13.360;2022-09-13T09:53:34;19.80;1.00
3756;DHT22;1893;52.526;13.360;2022-09-13T09:58:42;19.50;1.00
3756;DHT22;1893;52.526;13.360;2022-09-13T10:01:30;19.40;1.00
3756;DHT22;1893;52.526;13.360;2022-09-13T10:06:38;20.40;1.00
3756;DHT22;1893;52.526;13.360;2022-09-13T10:11:57;21.70;99.90
3756;DHT22;1893;52.526;13.360;2022-09-13T10:19:40;20.90;99.90
3756;DHT22;1893;52.526;13.360;2022-09-13T10:22:12;21.00;99.90
3756;DHT22;1893;52.526;13.360;2022-09-13T10:24:38;20.70;99.90
3756;DHT22;1893;52.526;13.360;2022-09-13T10:27:04;20.40;1.00
3756;DHT22;1893;52.526;13.360;2022-09-13T10:29:48;20.10;1.00
3756;DHT22;1893;52.526;13.360;2022-09-13T10:32:15;19.90;1.00
3756;DHT22;1893;52.526;13.360;2022-09-13T10:34:44;19.90;1.00
3756;DHT22;1893;52.526;13.360;2022-09-13T10:37:20;20.00;1.00
3756;DHT22;1893;52.526;13.360;2022-09-13T10:40:01;19.90;1.00
3756;DHT22;1893;52.526;13.360;2022-09-13T10:42:28;19.70;1.00
3756;DHT22;1893;52.526;13.360;2022-09-13T10:45:02;19.50;1.00
3756;DHT22;1893;52.526;13.360;2022-09-13T10:47:48;19.40;1.00
3756;DHT22;1893;52.526;13.360;2022-09-13T10:50:27;19.40;1.00
3756;DHT22;1893;52.526;13.360;2022-09-13T10:52:54;19.40;99.90
3756;DHT22;1893;52.526;13.360;2022-09-13T10:55:35;19.50;99.90
3756;DHT22;1893;52.526;13.360;2022-09-13T11:11:46;18.90;99.90
3756;DHT22;1893;52.526;13.360;2022-09-13T11:20:12;18.90;99.90
3756;DHT22;1893;52.526;13.360;2022-09-13T11:30:38;19.00;99.90
3756;DHT22;1893;52.526;13.360;2022-09-13T11:33:27;19.00;99.90
3756;DHT22;1893;52.526;13.360;2022-09-13T11:36:16;19.00;99.90
3756;DHT22;1893;52.526;13.360;2022-09-13T11:44:21;19.00;99.90
3756;DHT22;1893;52.526;13.360;2022-09-13T11:58:05;18.90;99.90
3756;DHT22;1893;52.526;13.360;2022-09-13T12:00:43;18.90;99.90
3756;DHT22;1893;52.526;13.360;2022-09-13T12:03:18;18.90;99.90
3756;DHT22;1893;52.526;13.360;2022-09-13T12:05:51;18.70;99.90
3756;DHT22;1893;52.526;13.360;2022-09-13T12:08:22;18.70;99.90
3756;DHT22;1893;52.526;13.360;2022-09-13T12:10:56;18.60;99.90
3756;DHT22;1893;52.526;13.360;2022-09-13T12:13:28;18.50;99.90
3756;DHT22;1893;52.526;13.360;2022-09-13T12:15:59;18.40;99.90
3756;DHT22;1893;52.526;13.360;2022-09-13T12:18:30;18.40;99.90
3756;DHT22;1893;52.526;13.360;2022-09-13T12:21:04;18.40;99.90
3756;DHT22;1893;52.526;13.360;2022-09-13T12:23:36;18.40;99.90
3756;DHT22;1893;52.526;13.360;2022-09-13T12:26:25;18.40;99.90
3756;DHT22;1893;52.526;13.360;2022-09-13T12:28:58;18.30;99.90
3756;DHT22;1893;52.526;13.360;2022-09-13T12:31:29;18.30;99.90
3756;DHT22;1893;52.526;13.360;2022-09-13T12:33:55;18.40;99.90
3756;DHT22;1893;52.526;13.360;2022-09-13T12:36:52;18.40;99.90
3756;DHT22;1893;52.526;13.360;2022-09-13T12:56:21;18.30;99.90
3756;DHT22;1893;52.526;13.360;2022-09-13T12:58:55;18.40;99.90
3756;DHT22;1893;52.526;13.360;2022-09-13T13:01:26;18.50;99.90
3756;DHT22;1893;52.526;13.360;2022-09-13T13:06:52;18.60;99.90
3756;DHT22;1893;52.526;13.360;2022-09-13T13:09:37;18.70;99.90
3756;DHT22;1893;52.526;13.360;2022-09-13T13:12:11;18.70;99.90
3756;DHT22;1893;52.526;13.360;2022-09-13T13:17:38;18.60;99.90
3756;DHT22;1893;52.526;13.360;2022-09-13T13:23:16;18.50;99.90
3756;DHT22;1893;52.526;13.360;2022-09-13T13:26:08;18.40;99.90
3756;DHT22;1893;52.526;13.360;2022-09-13T13:33:51;18.30;99.90
3756;DHT22;1893;52.526;13.360;2022-09-13T13:36:21;18.30;99.90
3756;DHT22;1893;52.526;13.360;2022-09-13T13:38:52;18.40;99.90
3756;DHT22;1893;52.526;13.360;2022-09-13T13:41:40;18.70;99.90
3756;DHT22;1893;52.526;13.360;2022-09-13T13:57:32;20.20;99.90
3756;DHT22;1893;52.526;13.360;2022-09-13T14:00:12;20.30;99.90
3756;DHT22;1893;52.526;13.360;2022-09-13T14:19:43;19.90;99.90
3756;DHT22;1893;52.526;13.360;2022-09-13T14:22:26;20.10;99.90
3756;DHT22;1893;52.526;13.360;2022-09-13T14:25:11;20.10;99.90
3756;DHT22;1893;52.526;13.360;2022-09-13T14:27:39;20.10;99.90
3756;DHT22;1893;52.526;13.360;2022-09-13T14:30:20;20.20;99.90
3756;DHT22;1893;52.526;13.360;2022-09-13T14:32:54;20.10;99.90
3756;DHT22;1893;52.526;13.360;2022-09-13T14:35:39;20.00;99.90
3756;DHT22;1893;52.526;13.360;2022-09-13T14:38:17;19.90;99.90
3756;DHT22;1893;52.526;13.360;2022-09-13T14:40:49;19.80;99.90
3756;DHT22;1893;52.526;13.360;2022-09-13T14:43:19;19.80;99.90
3756;DHT22;1893;52.526;13.360;2022-09-13T14:45:46;19.80;99.90
3756;DHT22;1893;52.526;13.360;2022-09-13T14:48:21;19.70;99.90
3756;DHT22;1893;52.526;13.360;2022-09-13T14:51:14;19.80;99.90
3756;DHT22;1893;52.526;13.360;2022-09-13T14:53:43;19.80;99.90
3756;DHT22;1893;52.526;13.360;2022-09-13T14:56:29;19.80;99.90
3756;DHT22;1893;52.526;13.360;2022-09-13T14:58:59;19.80;99.90
3756;DHT22;1893;52.526;13.360;2022-09-13T15:01:33;19.80;99.90
3756;DHT22;1893;52.526;13.360;2022-09-13T15:04:02;20.00;99.90
3756;DHT22;1893;52.526;13.360;2022-09-13T15:06:31;20.10;99.90
3756;DHT22;1893;52.526;13.360;2022-09-13T15:11:38;20.10;99.90
3756;DHT22;1893;52.526;13.360;2022-09-13T15:14:20;20.30;99.90
3756;DHT22;1893;52.526;13.360;2022-09-13T15:16:49;20.70;99.90
3756;DHT22;1893;52.526;13.360;2022-09-13T15:19:35;21.00;11.00
3756;DHT22;1893;52.526;13.360;2022-09-13T15:22:02;21.10;1.00
3756;DHT22;1893;52.526;13.360;2022-09-13T15:24:31;21.10;1.00
3756;DHT22;1893;52.526;13.360;2022-09-13T15:29:25;21.20;1.00
3756;DHT22;1893;52.526;13.360;2022-09-13T15:31:57;20.90;1.00
3756;DHT22;1893;52.526;13.360;2022-09-13T15:34:23;21.00;1.00
3756;DHT22;1893;52.526;13.360;2022-09-13T15:39:24;21.40;1.00
3756;DHT22;1893;52.526;13.360;2022-09-13T15:41:55;21.50;1.00
3756;DHT22;1893;52.526;13.360;2022-09-13T15:44:21;21.40;1.00
3756;DHT22;1893;52.526;13.360;2022-09-13T15:46:53;21.40;1.00
3756;DHT22;1893;52.526;13.360;2022-09-13T15:49:23;21.20;1.00
3756;DHT22;1893;52.526;13.360;2022-09-13T15:52:02;20.90;1.00
3756;DHT22;1893;52.526;13.360;2022-09-13T15:56:57;20.40;99.90
3756;DHT22;1893;52.526;13.360;2022-09-13T15:59:23;20.20;99.90
3756;DHT22;1893;52.526;13.360;2022-09-13T16:01:50;20.10;99.90
3756;DHT22;1893;52.526;13.360;2022-09-13T16:04:17;20.00;99.90
3756;DHT22;1893;52.526;13.360;2022-09-13T16:06:43;19.90;99.90
3756;DHT22;1893;52.526;13.360;2022-09-13T16:09:20;19.80;99.90
3756;DHT22;1893;52.526;13.360;2022-09-13T16:11:47;19.80;99.90
3756;DHT22;1893;52.526;13.360;2022-09-13T16:14:14;19.70;99.90
3756;DHT22;1893;52.526;13.360;2022-09-13T16:16:40;19.60;99.90
3756;DHT22;1893;52.526;13.360;2022-09-13T16:19:12;19.60;99.90
3756;DHT22;1893;52.526;13.360;2022-09-13T16:21:38;19.60;99.90
3756;DHT22;1893;52.526;13.360;2022-09-13T16:24:04;19.50;99.90
3756;DHT22;1893;52.526;13.360;2022-09-13T16:26:30;19.50;99.90
3756;DHT22;1893;52.526;13.360;2022-09-13T16:28:57;19.50;99.90
3756;DHT22;1893;52.526;13.360;2022-09-13T16:31:22;19.50;99.90
3756;DHT22;1893;52.526;13.360;2022-09-13T16:33:48;19.40;99.90
3756;DHT22;1893;52.526;13.360;2022-09-13T16:36:13;19.40;99.90
3756;DHT22;1893;52.526;13.360;2022-09-13T16:38:39;19.30;99.90
3756;DHT22;1893;52.526;13.360;2022-09-13T16:41:05;19.20;99.90
3756;DHT22;1893;52.526;13.360;2022-09-13T16:43:31;19.20;99.90
3756;DHT22;1893;52.526;13.360;2022-09-13T16:45:58;19.20;99.90
3756;DHT22;1893;52.526;13.360;2022-09-13T16:48:24;19.10;99.90
3756;DHT22;1893;52.526;13.360;2022-09-13T16:50:50;19.10;99.90
3756;DHT22;1893;52.526;13.360;2022-09-13T16:53:15;19.10;99.90
3756;DHT22;1893;52.526;13.360;2022-09-13T16:55:41;19.10;99.90
3756;DHT22;1893;52.526;13.360;2022-09-13T16:58:07;19.00;99.90
3756;DHT22;1893;52.526;13.360;2022-09-13T17:00:33;19.00;99.90
3756;DHT22;1893;52.526;13.360;2022-09-13T17:02:58;19.00;99.90
3756;DHT22;1893;52.526;13.360;2022-09-13T17:05:24;18.90;99.90
3756;DHT22;1893;52.526;13.360;2022-09-13T17:07:51;18.80;99.90
3756;DHT22;1893;52.526;13.360;2022-09-13T17:10:17;18.90;99.90
3756;DHT22;1893;52.526;13.360;2022-09-13T17:12:42;18.80;99.90
3756;DHT22;1893;52.526;13.360;2022-09-13T17:15:08;18.80;99.90
3756;DHT22;1893;52.526;13.360;2022-09-13T17:17:35;18.70;99.90
3756;DHT22;1893;52.526;13.360;2022-09-13T17:20:06;18.70;99.90
3756;DHT22;1893;52.526;13.360;2022-09-13T17:22:34;18.60;99.90
3756;DHT22;1893;52.526;13.360;2022-09-13T17:24:59;18.60;99.90
3756;DHT22;1893;52.526;13.360;2022-09-13T17:27:26;18.50;99.90
3756;DHT22;1893;52.526;13.360;2022-09-13T17:29:51;18.50;99.90
3756;DHT22;1893;52.526;13.360;2022-09-13T17:32:18;18.50;99.90
3756;DHT22;1893;52.526;13.360;2022-09-13T17:34:44;18.50;99.90
3756;DHT22;1893;52.526;13.360;2022-09-13T17:37:09;18.50;99.90
3756;DHT22;1893;52.526;13.360;2022-09-13T17:39:35;18.40;99.90
3756;DHT22;1893;52.526;13.360;2022-09-13T17:42:00;18.40;99.90
3756;DHT22;1893;52.526;13.360;2022-09-13T17:44:26;18.50;99.90
3756;DHT22;1893;52.526;13.360;2022-09-13T17:46:52;18.50;99.90
3756;DHT22;1893;52.526;13.360;2022-09-13T17:49:17;18.50;99.90
3756;DHT22;1893;52.526;13.360;2022-09-13T17:51:44;18.50;99.90
3756;DHT22;1893;52.526;13.360;2022-09-13T17:54:10;18.40;99.90
3756;DHT22;1893;52.526;13.360;2022-09-13T17:56:38;18.40;99.90
3756;DHT22;1893;52.526;13.360;2022-09-13T17:59:14;18.40;99.90
3756;DHT22;1893;52.526;13.360;2022-09-13T18:01:42;18.30;99.90
3756;DHT22;1893;52.526;13.360;2022-09-13T18:04:08;18.30;99.90
3756;DHT22;1893;52.526;13.360;2022-09-13T18:06:35;18.30;99.90
3756;DHT22;1893;52.526;13.360;2022-09-13T18:09:02;18.20;99.90
3756;DHT22;1893;52.526;13.360;2022-09-13T18:11:28;18.30;99.90
3756;DHT22;1893;52.526;13.360;2022-09-13T18:13:53;18.30;99.90
3756;DHT22;1893;52.526;13.360;2022-09-13T18:16:23;18.20;99.90
3756;DHT22;1893;52.526;13.360;2022-09-13T18:18:50;18.10;99.90
3756;DHT22;1893;52.526;13.360;2022-09-13T18:21:21;18.10;99.90
3756;DHT22;1893;52.526;13.360;2022-09-13T18:23:49;18.00;99.90
3756;DHT22;1893;52.526;13.360;2022-09-13T18:26:17;18.00;99.90
3756;DHT22;1893;52.526;13.360;2022-09-13T18:28:43;18.00;99.90
3756;DHT22;1893;52.526;13.360;2022-09-13T18:31:12;18.00;99.90
3756;DHT22;1893;52.526;13.360;2022-09-13T18:33:38;18.00;99.90
3756;DHT22;1893;52.526;13.360;2022-09-13T18:38:35;17.90;99.90
3756;DHT22;1893;52.526;13.360;2022-09-13T18:41:10;17.90;99.90
3756;DHT22;1893;52.526;13.360;2022-09-13T18:43:38;17.90;99.90
3756;DHT22;1893;52.526;13.360;2022-09-13T18:46:07;17.90;99.90
3756;DHT22;1893;52.526;13.360;2022-09-13T18:48:37;17.90;99.90
3756;DHT22;1893;52.526;13.360;2022-09-13T18:51:04;17.90;99.90
3756;DHT22;1893;52.526;13.360;2022-09-13T18:53:32;17.90;99.90
3756;DHT22;1893;52.526;13.360;2022-09-13T18:56:06;17.80;99.90
3756;DHT22;1893;52.526;13.360;2022-09-13T18:58:34;17.80;99.90
3756;DHT22;1893;52.526;13.360;2022-09-13T19:01:05;17.70;99.90
3756;DHT22;1893;52.526;13.360;2022-09-13T19:03:31;17.70;99.90
3756;DHT22;1893;52.526;13.360;2022-09-13T19:06:08;17.70;99.90
3756;DHT22;1893;52.526;13.360;2022-09-13T19:08:33;17.60;99.90
3756;DHT22;1893;52.526;13.360;2022-09-13T19:10:59;17.50;99.90
3756;DHT22;1893;52.526;13.360;2022-09-13T19:13:27;17.50;99.90
3756;DHT22;1893;52.526;13.360;2022-09-13T19:15:56;17.40;99.90